Time;durP1;ratioP1;P1;durP2;ratioP2;P2;SDS_P1;SDS_P2;PMS_P1;PMS_P2;Temp;Humidity;BMP_temperature;BMP_pressure;BME280_temperature;BME280_humidity;BME280_pressure;Samples;Min_cycle;Max_cycle;Signal;HPM_P1;HPM_P2
2021/01/14 00:02:05;;;;;;;2.72;1.90;;;7.70;99.90;;;;;;5087522;28;20024;-60
2021/01/14 00:04:31;;;;;;;4.65;2.47;;;7.70;99.90;;;;;;5092780;28;20093;-62
2021/01/14 00:06:58;;;;;;;4.47;2.65;;;7.70;99.90;;;;;;5064439;28;20481;-60
2021/01/14 00:09:24;;;;;;;3.42;2.33;;;7.50;99.90;;;;;;5092935;28;20081;-60
2021/01/14 00:11:50;;;;;;;3.10;2.10;;;7.60;99.90;;;;;;5086092;28;20047;-60
2021/01/14 00:14:16;;;;;;;3.40;1.90;;;7.70;99.90;;;;;;5092788;28;20020;-61
2021/01/14 00:16:41;;;;;;;4.40;2.33;;;7.60;99.90;;;;;;5086037;28;20051;-70
2021/01/14 00:19:07;;;;;;;2.15;1.90;;;7.70;99.90;;;;;;5092872;28;20118;-60
2021/01/14 00:21:43;;;;;;;4.15;2.10;;;7.60;99.90;;;;;;5086055;28;20099;-60
2021/01/14 00:24:09;;;;;;;3.33;2.08;;;7.60;99.90;;;;;;5083432;28;20032;-60
2021/01/14 00:26:35;;;;;;;2.50;1.85;;;7.50;99.90;;;;;;5086314;28;20655;-60
2021/01/14 00:29:02;;;;;;;1.90;1.75;;;7.60;99.90;;;;;;5092696;28;20031;-73
2021/01/14 00:31:28;;;;;;;3.25;1.95;;;7.50;99.90;;;;;;5084707;28;20036;-68
2021/01/14 00:33:54;;;;;;;5.45;1.90;;;7.60;99.90;;;;;;5092169;28;20039;-60
2021/01/14 00:36:30;;;;;;;1.63;1.40;;;7.60;99.90;;;;;;5083611;28;20036;-60
2021/01/14 00:39:00;;;;;;;2.63;1.67;;;7.60;99.90;;;;;;5076246;28;20069;-66
2021/01/14 00:41:27;;;;;;;5.90;1.70;;;7.60;99.90;;;;;;5082354;28;20100;-61
2021/01/14 00:43:53;;;;;;;1.75;1.50;;;7.50;99.90;;;;;;5089971;28;20027;-71
2021/01/14 00:46:21;;;;;;;1.50;1.20;;;7.50;99.90;;;;;;5085612;28;20024;-60
2021/01/14 00:48:47;;;;;;;4.25;1.50;;;7.50;99.90;;;;;;5092069;28;20024;-67
2021/01/14 00:51:13;;;;;;;1.95;1.02;;;7.50;99.90;;;;;;5101077;28;20070;-72
2021/01/14 00:53:39;;;;;;;1.30;1.08;;;7.40;99.90;;;;;;5092040;28;20020;-60
2021/01/14 00:56:05;;;;;;;1.65;1.38;;;7.50;99.90;;;;;;5085290;28;20032;-61
2021/01/14 00:58:34;;;;;;;2.50;1.70;;;7.40;99.90;;;;;;5089316;28;20020;-66
2021/01/14 01:01:00;;;;;;;5.13;1.80;;;7.40;99.90;;;;;;5088169;28;20039;-61
2021/01/14 01:03:26;;;;;;;2.50;1.65;;;7.50;99.90;;;;;;5087493;28;20032;-61
2021/01/14 01:05:52;;;;;;;1.80;1.52;;;7.60;99.90;;;;;;5085275;28;20027;-60
2021/01/14 01:08:18;;;;;;;2.17;1.38;;;7.40;99.90;;;;;;5070237;28;20055;-60
2021/01/14 01:10:43;;;;;;;1.88;1.50;;;7.40;99.90;;;;;;5078300;28;20040;-67
2021/01/14 01:13:09;;;;;;;1.58;1.40;;;7.50;99.90;;;;;;5083312;28;20035;-61
2021/01/14 01:15:35;;;;;;;3.83;1.67;;;7.40;99.90;;;;;;5089430;28;20028;-71
2021/01/14 01:18:00;;;;;;;2.60;1.90;;;7.40;99.90;;;;;;5082951;28;20484;-61
2021/01/14 01:20:26;;;;;;;2.10;1.73;;;7.30;99.90;;;;;;5088959;28;21876;-61
2021/01/14 01:22:54;;;;;;;2.00;1.80;;;7.30;99.90;;;;;;5073955;28;20367;-61
2021/01/14 01:25:20;;;;;;;3.78;1.95;;;7.30;99.90;;;;;;5073400;28;20016;-60
2021/01/14 01:27:45;;;;;;;2.53;1.52;;;7.30;99.90;;;;;;5079974;28;20590;-61
2021/01/14 01:30:12;;;;;;;3.13;2.42;;;7.40;99.90;;;;;;5073469;28;20056;-61
2021/01/14 01:32:37;;;;;;;4.28;2.08;;;7.40;99.90;;;;;;5084661;28;20514;-61
2021/01/14 01:35:04;;;;;;;4.00;2.08;;;7.40;99.90;;;;;;5087490;28;20055;-61
2021/01/14 01:37:30;;;;;;;3.75;2.55;;;7.30;99.90;;;;;;5084408;28;20104;-60
2021/01/14 01:42:31;;;;;;;2.77;2.30;;;7.40;99.90;;;;;;5632272;23;20103;-64
2021/01/14 01:45:00;;;;;;;3.95;2.28;;;7.40;99.90;;;;;;5028197;28;20296;-64
2021/01/14 01:47:32;;;;;;;2.63;2.42;;;7.40;99.90;;;;;;5028806;28;20033;-66
2021/01/14 01:50:02;;;;;;;5.60;3.25;;;7.40;99.90;;;;;;5028503;28;20033;-65
2021/01/14 01:52:31;;;;;;;3.88;2.65;;;7.40;99.90;;;;;;5028987;28;20088;-66
2021/01/14 01:54:57;;;;;;;4.57;2.97;;;7.30;99.90;;;;;;5028755;28;20526;-64
2021/01/14 01:57:23;;;;;;;3.45;3.03;;;7.30;99.90;;;;;;5028889;28;20112;-65
2021/01/14 01:59:49;;;;;;;4.65;3.00;;;7.40;99.90;;;;;;5028499;28;20103;-67
2021/01/14 02:02:27;;;;;;;3.90;2.50;;;7.40;99.90;;;;;;5028727;28;20410;-65
2021/01/14 02:04:54;;;;;;;4.40;2.90;;;7.30;99.90;;;;;;5026792;28;20124;-68
2021/01/14 02:07:47;;;;;;;5.10;2.88;;;7.30;99.90;;;;;;5028440;28;20022;-69
2021/01/14 02:10:36;;;;;;;5.25;3.00;;;7.20;99.90;;;;;;5028036;28;20034;-68
2021/01/14 02:13:20;;;;;;;7.00;2.92;;;7.30;99.90;;;;;;5024121;28;20045;-70
2021/01/14 02:15:48;;;;;;;5.78;3.35;;;7.10;99.90;;;;;;5027982;28;20021;-68
2021/01/14 02:18:18;;;;;;;7.97;2.90;;;7.20;99.90;;;;;;5028573;28;20025;-70
2021/01/14 02:20:51;;;;;;;4.22;3.05;;;7.10;99.90;;;;;;5027119;28;20472;-67
2021/01/14 02:23:33;;;;;;;5.05;2.50;;;7.10;99.90;;;;;;5028101;28;20028;-70
2021/01/14 02:26:25;;;;;;;5.95;2.58;;;7.10;99.90;;;;;;5027518;28;20105;-68
2021/01/14 02:28:55;;;;;;;4.70;2.80;;;7.30;99.90;;;;;;5027289;28;20037;-69
2021/01/14 02:31:23;;;;;;;3.55;3.25;;;7.20;99.90;;;;;;5027742;28;20041;-69
2021/01/14 02:33:50;;;;;;;5.80;3.05;;;7.10;99.90;;;;;;5028385;28;20316;-70
2021/01/14 02:36:16;;;;;;;4.95;3.15;;;7.10;99.90;;;;;;5027686;28;20029;-69
2021/01/14 02:38:41;;;;;;;7.15;3.25;;;7.10;99.90;;;;;;5028294;28;20045;-70
2021/01/14 02:41:07;;;;;;;4.43;3.22;;;7.10;99.90;;;;;;5027463;28;20045;-69
2021/01/14 02:43:33;;;;;;;6.00;3.08;;;7.10;99.90;;;;;;5027294;28;20208;-69
2021/01/14 02:45:59;;;;;;;5.40;2.88;;;7.10;99.90;;;;;;5027673;28;20034;-69
2021/01/14 02:49:03;;;;;;;5.72;3.33;;;7.00;99.90;;;;;;5028061;28;20026;-66
2021/01/14 02:51:58;;;;;;;3.83;3.13;;;7.10;99.90;;;;;;5026113;28;20045;-66
2021/01/14 02:54:24;;;;;;;9.93;4.30;;;6.90;99.90;;;;;;5006502;28;20132;-69
2021/01/14 02:56:50;;;;;;;7.10;3.47;;;6.90;99.90;;;;;;5025491;28;20421;-68
2021/01/14 02:59:16;;;;;;;4.18;3.15;;;7.00;99.90;;;;;;5027755;28;20160;-69
2021/01/14 03:01:42;;;;;;;7.00;3.53;;;7.00;99.90;;;;;;5027752;28;20108;-70
2021/01/14 03:04:11;;;;;;;5.72;3.33;;;7.00;99.90;;;;;;5027516;28;20109;-68
2021/01/14 03:06:36;;;;;;;6.10;3.45;;;6.80;99.90;;;;;;5027430;28;20037;-69
2021/01/14 03:09:04;;;;;;;7.03;3.35;;;6.90;99.90;;;;;;5028120;28;20145;-70
2021/01/14 03:11:31;;;;;;;6.47;3.38;;;6.80;99.90;;;;;;5026826;28;20627;-65
2021/01/14 03:13:57;;;;;;;4.72;3.40;;;6.80;99.90;;;;;;5028040;28;20022;-68
2021/01/14 03:16:24;;;;;;;9.73;4.07;;;6.80;99.90;;;;;;5027292;28;20044;-70
2021/01/14 03:18:50;;;;;;;4.35;3.95;;;6.90;99.90;;;;;;5028111;28;20098;-68
2021/01/14 03:21:25;;;;;;;5.40;3.53;;;6.70;99.90;;;;;;5026979;28;20179;-64
2021/01/14 03:23:52;;;;;;;5.75;3.70;;;6.90;99.90;;;;;;5027868;28;20124;-69
2021/01/14 03:26:18;;;;;;;8.73;4.05;;;6.90;99.90;;;;;;5026871;28;20021;-69
2021/01/14 03:28:44;;;;;;;6.15;4.13;;;6.90;99.90;;;;;;5027804;28;20159;-69
2021/01/14 03:31:12;;;;;;;5.75;4.40;;;6.80;99.90;;;;;;5027064;28;20041;-70
2021/01/14 03:33:39;;;;;;;4.97;4.53;;;6.80;99.90;;;;;;5027635;28;20099;-69
2021/01/14 03:36:05;;;;;;;6.00;4.45;;;6.80;99.90;;;;;;5029184;28;20512;-69
2021/01/14 03:38:38;;;;;;;6.90;4.88;;;6.60;99.90;;;;;;5031640;28;20029;-70
2021/01/14 03:41:11;;;;;;;5.25;4.60;;;6.70;99.90;;;;;;5031338;28;20037;-69
2021/01/14 03:43:37;;;;;;;8.85;5.45;;;6.70;99.90;;;;;;5031267;28;20053;-69
2021/01/14 03:46:17;;;;;;;7.28;5.43;;;6.80;99.90;;;;;;5031057;28;20516;-67
2021/01/14 03:48:44;;;;;;;8.98;5.40;;;6.80;99.90;;;;;;5031697;28;20022;-70
2021/01/14 03:51:28;;;;;;;6.28;5.70;;;6.70;99.90;;;;;;5030297;28;20073;-70
2021/01/14 03:53:54;;;;;;;6.28;5.45;;;6.80;99.90;;;;;;5031522;28;20052;-70
2021/01/14 03:56:20;;;;;;;8.43;6.13;;;6.70;99.90;;;;;;5030365;28;20049;-68
2021/01/14 03:58:45;;;;;;;6.07;5.47;;;6.80;99.90;;;;;;5030879;28;20108;-68
2021/01/14 04:01:12;;;;;;;7.47;5.47;;;6.70;99.90;;;;;;5030377;28;20052;-65
2021/01/14 04:03:41;;;;;;;7.55;6.82;;;6.60;99.90;;;;;;5031001;28;20024;-66
2021/01/14 04:06:07;;;;;;;10.60;6.30;;;6.80;99.90;;;;;;5028485;28;20351;-66
2021/01/14 04:08:33;;;;;;;8.80;6.85;;;6.70;99.90;;;;;;5031221;28;20022;-67
2021/01/14 04:10:59;;;;;;;10.27;7.65;;;6.60;99.90;;;;;;5029154;28;20037;-65
2021/01/14 04:13:24;;;;;;;10.52;7.55;;;6.70;99.90;;;;;;5030576;28;20025;-70
2021/01/14 04:15:50;;;;;;;8.52;7.20;;;6.60;99.90;;;;;;5029954;28;20112;-69
2021/01/14 04:18:16;;;;;;;14.40;7.90;;;6.70;99.90;;;;;;5030558;28;20497;-69
2021/01/14 04:20:41;;;;;;;11.00;7.72;;;6.70;99.90;;;;;;5029742;28;20100;-68
2021/01/14 04:23:07;;;;;;;12.93;7.57;;;6.70;99.90;;;;;;5030232;28;20323;-67
2021/01/14 04:25:33;;;;;;;10.82;8.70;;;6.80;99.90;;;;;;5030077;28;20025;-69
2021/01/14 04:28:00;;;;;;;12.57;8.63;;;6.60;99.90;;;;;;5029364;28;20040;-68
2021/01/14 04:30:27;;;;;;;15.23;8.45;;;6.70;99.90;;;;;;5026332;28;20018;-65
2021/01/14 04:32:59;;;;;;;11.48;9.15;;;6.70;99.90;;;;;;5029831;28;20021;-68
2021/01/14 04:35:26;;;;;;;10.95;8.98;;;6.70;99.90;;;;;;5027169;28;20516;-68
2021/01/14 04:37:51;;;;;;;12.23;9.55;;;6.70;99.90;;;;;;5030061;28;20392;-68
2021/01/14 04:40:17;;;;;;;10.15;9.15;;;6.70;99.90;;;;;;5029569;28;20021;-68
2021/01/14 04:42:49;;;;;;;10.30;8.63;;;6.80;99.90;;;;;;5028499;28;20034;-68
2021/01/14 04:45:18;;;;;;;15.20;9.35;;;6.80;99.90;;;;;;5028482;28;20092;-65
2021/01/14 04:47:48;;;;;;;9.98;8.98;;;6.60;99.90;;;;;;5029514;28;20468;-64
2021/01/14 04:50:16;;;;;;;13.45;9.38;;;6.50;99.90;;;;;;5028788;28;20037;-63
2021/01/14 04:52:42;;;;;;;11.35;9.98;;;6.80;99.90;;;;;;5029301;28;20028;-64
2021/01/14 04:55:15;;;;;;;9.45;8.60;;;6.80;99.90;;;;;;5029632;28;20707;-63
2021/01/14 04:57:45;;;;;;;12.20;8.88;;;6.70;99.90;;;;;;5028666;28;20436;-63
2021/01/14 05:00:13;;;;;;;10.85;8.75;;;6.70;99.90;;;;;;5029286;28;20030;-64
2021/01/14 05:02:53;;;;;;;9.35;8.10;;;6.60;99.90;;;;;;5025398;28;20113;-63
2021/01/14 05:05:22;;;;;;;9.77;8.88;;;6.80;99.90;;;;;;5028354;28;20029;-63
2021/01/14 05:08:01;;;;;;;8.20;7.30;;;6.70;99.90;;;;;;5027987;28;20316;-63
2021/01/14 05:10:27;;;;;;;9.65;8.63;;;6.70;99.90;;;;;;5028349;28;20068;-63
2021/01/14 05:12:55;;;;;;;10.77;8.38;;;6.70;99.90;;;;;;5028911;28;20112;-63
2021/01/14 05:15:25;;;;;;;11.43;8.35;;;6.70;99.90;;;;;;5028573;28;20059;-63
2021/01/14 05:17:51;;;;;;;9.63;8.48;;;6.60;99.90;;;;;;5029144;28;20045;-63
2021/01/14 05:20:16;;;;;;;8.20;7.40;;;6.70;99.90;;;;;;5028998;28;20025;-63
2021/01/14 05:22:47;;;;;;;8.05;7.35;;;6.70;99.90;;;;;;5028198;28;20090;-63
2021/01/14 05:25:12;;;;;;;8.60;7.90;;;6.60;99.90;;;;;;5028928;28;20654;-64
2021/01/14 05:27:38;;;;;;;8.00;7.30;;;6.70;99.90;;;;;;5028074;28;20053;-63
2021/01/14 05:30:09;;;;;;;7.68;6.90;;;6.60;99.90;;;;;;5028418;28;20142;-63
2021/01/14 05:32:42;;;;;;;10.27;7.22;;;6.80;99.90;;;;;;5029033;28;20191;-63
2021/01/14 05:35:10;;;;;;;7.65;7.05;;;6.70;99.90;;;;;;5028374;28;20029;-63
2021/01/14 05:37:43;;;;;;;7.63;6.93;;;6.70;99.90;;;;;;5028843;28;20052;-63
2021/01/14 05:40:21;;;;;;;7.45;6.72;;;6.70;99.90;;;;;;5029251;28;20086;-63
2021/01/14 05:43:08;;;;;;;10.27;6.72;;;6.70;99.90;;;;;;5025581;28;20041;-63
2021/01/14 05:45:34;;;;;;;;;;;6.70;99.90;;;;;;5029244;28;20097;-63
2021/01/14 05:48:30;;;;;;;9.88;6.65;;;6.80;99.90;;;;;;5028322;28;19913;-64
2021/01/14 05:50:57;;;;;;;9.57;7.27;;;6.70;99.90;;;;;;5026560;28;20122;-64
2021/01/14 05:53:25;;;;;;;7.30;6.70;;;6.80;99.90;;;;;;5028268;28;20624;-67
2021/01/14 05:55:51;;;;;;;6.95;6.25;;;6.70;99.90;;;;;;5025417;28;20397;-66
2021/01/14 05:58:18;;;;;;;6.10;5.57;;;6.80;99.90;;;;;;5027676;28;20013;-69
2021/01/14 06:00:48;;;;;;;6.55;5.95;;;6.80;99.90;;;;;;5028062;28;20033;-67
2021/01/14 06:03:43;;;;;;;6.75;6.15;;;6.80;99.90;;;;;;5026022;28;20033;-67
2021/01/14 06:06:16;;;;;;;5.78;5.38;;;6.70;99.90;;;;;;5008131;28;20041;-65
2021/01/14 06:08:42;;;;;;;7.75;5.75;;;6.70;99.90;;;;;;5028055;28;20045;-65
2021/01/14 06:11:22;;;;;;;6.40;5.80;;;6.80;99.90;;;;;;5027024;28;20176;-68
2021/01/14 06:13:48;;;;;;;6.07;5.65;;;6.90;99.90;;;;;;5028009;28;20539;-65
2021/01/14 06:16:14;;;;;;;7.30;6.57;;;6.80;99.90;;;;;;5027467;28;20029;-62
2021/01/14 06:18:40;;;;;;;6.85;6.32;;;6.90;99.90;;;;;;5028127;28;20040;-63
2021/01/14 06:21:06;;;;;;;9.27;6.35;;;6.90;99.90;;;;;;5025938;28;20025;-67
2021/01/14 06:23:46;;;;;;;10.48;6.80;;;6.80;99.90;;;;;;5025877;28;20045;-64
2021/01/14 06:26:12;;;;;;;8.15;7.00;;;6.80;99.90;;;;;;5028079;28;20018;-64
2021/01/14 06:28:37;;;;;;;6.72;6.22;;;7.00;99.90;;;;;;5027873;28;20020;-67
2021/01/14 06:31:08;;;;;;;6.68;6.13;;;6.90;99.90;;;;;;5027633;28;20409;-63
2021/01/14 06:33:34;;;;;;;6.28;5.72;;;7.00;99.90;;;;;;5028237;28;20575;-62
2021/01/14 06:36:11;;;;;;;7.13;6.53;;;7.30;99.90;;;;;;5027568;28;20032;-63
2021/01/14 06:38:44;;;;;;;10.15;7.85;;;7.10;99.90;;;;;;5027972;28;20025;-65
2021/01/14 06:41:20;;;;;;;11.18;10.02;;;7.10;99.90;;;;;;5027083;28;20073;-65
2021/01/14 06:43:47;;;;;;;;;;;7.10;99.90;;;;;;5028365;28;20061;-63
2021/01/14 06:46:20;;;;;;;6.32;5.82;;;7.00;99.90;;;;;;5027195;28;19905;-64
2021/01/14 06:49:08;;;;;;;6.68;6.18;;;7.10;99.90;;;;;;5027339;28;20374;-66
2021/01/14 06:51:54;;;;;;;5.57;5.18;;;7.00;99.90;;;;;;5026939;28;20095;-64
2021/01/14 06:54:21;;;;;;;;;;;6.90;99.90;;;;;;5028065;28;20029;-69
2021/01/14 06:56:57;;;;;;;5.78;5.35;;;6.90;99.90;;;;;;5020561;28;19959;-65
2021/01/14 06:59:24;;;;;;;6.38;5.88;;;6.90;99.90;;;;;;5022331;28;20030;-70
2021/01/14 07:02:07;;;;;;;5.45;4.72;;;7.00;99.90;;;;;;5026731;28;20009;-63
2021/01/14 07:05:06;;;;;;;5.28;4.88;;;7.00;99.90;;;;;;5024190;28;20032;-62
2021/01/14 07:07:47;;;;;;;4.90;4.50;;;6.90;99.90;;;;;;5020085;28;20025;-62
2021/01/14 07:10:15;;;;;;;4.80;4.45;;;7.00;99.90;;;;;;5025598;28;20021;-61
2021/01/14 07:12:45;;;;;;;4.50;4.20;;;6.90;99.90;;;;;;5026108;28;20033;-70
2021/01/14 07:15:13;;;;;;;4.45;4.05;;;6.90;99.90;;;;;;5026753;28;20013;-65
2021/01/14 07:17:40;;;;;;;4.18;3.75;;;7.00;99.90;;;;;;5026335;28;20049;-62
2021/01/14 07:20:13;;;;;;;4.22;3.85;;;6.90;99.90;;;;;;5025120;28;20037;-62
2021/01/14 07:22:41;;;;;;;4.20;3.83;;;6.90;99.90;;;;;;5026372;28;20404;-70
2021/01/14 07:25:11;;;;;;;3.13;2.92;;;6.90;99.90;;;;;;5026999;28;20045;-74
2021/01/14 07:27:37;;;;;;;3.55;3.25;;;6.70;99.90;;;;;;5027200;28;20095;-70
2021/01/14 07:30:07;;;;;;;3.78;3.47;;;7.00;99.90;;;;;;5026225;28;20026;-67
2021/01/14 07:33:04;;;;;;;3.63;3.20;;;6.90;99.90;;;;;;5026267;28;20167;-73
2021/01/14 07:35:43;;;;;;;3.70;3.40;;;6.90;99.90;;;;;;5023956;28;20018;-65
2021/01/14 07:38:14;;;;;;;4.03;3.72;;;6.90;99.90;;;;;;5025382;28;20052;-71
2021/01/14 07:40:41;;;;;;;3.95;3.65;;;6.80;99.90;;;;;;5025208;28;20030;-63
2021/01/14 07:43:09;;;;;;;3.83;3.53;;;6.90;99.90;;;;;;5025788;28;20546;-67
2021/01/14 07:45:35;;;;;;;4.68;4.28;;;6.90;99.90;;;;;;5025680;28;20029;-74
2021/01/14 07:48:21;;;;;;;4.57;4.18;;;6.90;99.90;;;;;;5024447;28;20527;-63
2021/01/14 07:50:55;;;;;;;4.47;4.07;;;6.80;99.90;;;;;;5024885;28;20041;-63
2021/01/14 07:53:21;;;;;;;4.85;4.43;;;6.90;99.90;;;;;;5026448;28;20513;-74
2021/01/14 07:55:47;;;;;;;5.10;4.60;;;6.90;99.90;;;;;;5026621;28;20021;-66
2021/01/14 07:58:19;;;;;;;6.43;4.30;;;7.30;99.90;;;;;;5023878;28;20033;-62
2021/01/14 08:01:10;;;;;;;4.53;4.13;;;6.90;99.90;;;;;;5025712;28;20017;-70
2021/01/14 08:03:43;;;;;;;5.18;4.68;;;6.80;99.90;;;;;;5025348;28;20022;-62
2021/01/14 08:06:22;;;;;;;6.40;4.85;;;6.90;99.90;;;;;;5024888;28;20132;-63
2021/01/14 08:09:08;;;;;;;5.97;4.90;;;6.90;99.90;;;;;;5027447;28;20053;-70
2021/01/14 08:11:34;;;;;;;5.15;4.75;;;7.00;99.90;;;;;;5023954;28;20036;-67
2021/01/14 08:14:10;;;;;;;5.50;5.00;;;7.00;99.90;;;;;;5026342;28;20176;-63
2021/01/14 08:16:40;;;;;;;5.95;5.35;;;7.00;99.90;;;;;;5026308;28;20025;-71
2021/01/14 08:19:14;;;;;;;6.65;5.07;;;6.90;99.90;;;;;;5026122;28;20064;-72
2021/01/14 08:21:42;;;;;;;5.40;5.00;;;7.00;99.90;;;;;;5027968;28;20091;-70
2021/01/14 08:24:08;;;;;;;7.78;5.00;;;7.00;99.90;;;;;;5030481;28;20523;-66
2021/01/14 08:26:52;;;;;;;6.32;4.90;;;6.90;99.90;;;;;;5028577;28;20059;-69
2021/01/14 08:29:50;;;;;;;4.80;4.40;;;6.90;99.90;;;;;;5020996;28;20037;-72
2021/01/14 08:32:46;;;;;;;5.03;4.50;;;6.80;99.90;;;;;;5028176;28;20136;-69
2021/01/14 08:35:14;;;;;;;8.50;4.90;;;6.80;99.90;;;;;;5027629;28;20029;-71
2021/01/14 08:38:17;;;;;;;5.53;4.50;;;6.90;99.90;;;;;;5029509;28;20457;-67
2021/01/14 08:40:43;;;;;;;7.32;5.28;;;6.80;99.90;;;;;;4971708;28;20221;-70
2021/01/14 08:43:15;;;;;;;4.50;4.10;;;6.80;99.90;;;;;;5018124;28;20045;-69
2021/01/14 08:45:48;;;;;;;7.18;4.95;;;6.80;99.90;;;;;;5025166;28;20018;-72
2021/01/14 08:48:28;;;;;;;6.57;4.95;;;6.80;99.90;;;;;;5026211;28;20051;-71
2021/01/14 08:50:56;;;;;;;7.70;4.60;;;6.80;99.90;;;;;;5028639;28;20034;-70
2021/01/14 08:53:23;;;;;;;9.13;5.30;;;7.00;99.90;;;;;;5028975;28;20029;-64
2021/01/14 08:56:00;;;;;;;6.53;5.45;;;7.10;99.90;;;;;;5029354;28;20018;-73
2021/01/14 08:58:44;;;;;;;7.88;5.95;;;6.90;99.90;;;;;;5030048;28;20068;-67
2021/01/14 09:01:17;;;;;;;10.57;6.40;;;6.80;99.90;;;;;;5029479;28;20033;-77
2021/01/14 09:03:45;;;;;;;6.22;5.63;;;7.00;99.90;;;;;;5029968;28;20055;-77
2021/01/14 09:06:11;;;;;;;5.38;4.97;;;7.10;99.90;;;;;;5029047;28;20029;-65
2021/01/14 09:08:39;;;;;;;8.88;4.95;;;7.20;99.90;;;;;;5024705;28;20026;-76
2021/01/14 09:11:04;;;;;;;5.28;4.75;;;7.20;99.90;;;;;;5025512;28;20115;-61
2021/01/14 09:13:31;;;;;;;5.00;4.03;;;7.30;99.90;;;;;;5023621;28;20022;-60
2021/01/14 09:16:06;;;;;;;6.15;4.60;;;7.10;99.90;;;;;;5022971;28;20136;-60
2021/01/14 09:18:32;;;;;;;6.00;4.55;;;7.10;99.90;;;;;;5029524;28;20029;-61
2021/01/14 09:20:59;;;;;;;5.20;4.70;;;7.20;99.90;;;;;;5028805;28;20032;-61
2021/01/14 09:23:35;;;;;;;8.20;5.03;;;7.10;99.90;;;;;;5029553;28;20032;-61
2021/01/14 09:26:09;;;;;;;;;;;7.20;99.90;;;;;;5025057;28;20057;-60
2021/01/14 09:28:34;;;;;;;4.40;3.97;;;7.20;99.90;;;;;;5020988;28;19935;-61
2021/01/14 09:31:05;;;;;;;4.40;4.00;;;7.20;99.90;;;;;;5023216;28;20351;-65
2021/01/14 09:33:41;;;;;;;4.13;3.83;;;7.50;99.90;;;;;;5012797;28;20025;-61
2021/01/14 09:36:08;;;;;;;3.85;3.55;;;7.60;99.90;;;;;;5026530;28;20126;-61
2021/01/14 09:38:46;;;;;;;3.65;2.72;;;7.70;99.90;;;;;;5028804;28;20116;-61
2021/01/14 09:41:12;;;;;;;2.95;2.55;;;7.80;99.90;;;;;;5028103;28;20087;-61
2021/01/14 09:43:40;;;;;;;2.83;2.40;;;7.90;99.90;;;;;;5028235;28;20092;-60
2021/01/14 09:46:12;;;;;;;3.70;2.50;;;7.80;99.90;;;;;;5028893;28;20119;-61
2021/01/14 09:48:39;;;;;;;2.40;2.20;;;7.70;99.90;;;;;;5029233;28;20025;-60
2021/01/14 09:51:10;;;;;;;4.55;2.05;;;7.80;99.90;;;;;;5027909;28;20037;-61
2021/01/14 09:54:03;;;;;;;7.07;2.47;;;7.90;99.90;;;;;;5028891;28;20048;-60
2021/01/14 09:56:37;;;;;;;2.08;1.58;;;7.90;99.90;;;;;;5026007;28;20037;-61
2021/01/14 09:59:32;;;;;;;1.42;1.33;;;8.00;99.90;;;;;;5029169;28;20066;-61
2021/01/14 10:02:21;;;;;;;1.92;1.38;;;7.80;99.90;;;;;;5021577;28;20061;-61
2021/01/14 10:05:04;;;;;;;5.13;1.58;;;8.00;99.90;;;;;;5026158;28;20022;-62
2021/01/14 10:07:34;;;;;;;1.83;1.25;;;8.60;99.90;;;;;;5026807;28;20026;-61
2021/01/14 10:10:00;;;;;;;1.45;1.33;;;8.90;99.90;;;;;;5019669;28;20131;-67
2021/01/14 10:12:27;;;;;;;2.40;1.60;;;9.10;99.90;;;;;;5021557;28;20516;-66
2021/01/14 10:15:14;;;;;;;1.67;1.10;;;9.00;99.90;;;;;;5020319;28;20041;-61
2021/01/14 10:17:41;;;;;;;2.20;1.13;;;8.70;99.90;;;;;;5025114;28;20026;-61
2021/01/14 10:20:14;;;;;;;1.10;0.90;;;9.10;99.90;;;;;;5027683;28;20067;-61
2021/01/14 10:22:52;;;;;;;1.48;1.20;;;9.00;99.90;;;;;;5022703;28;20018;-62
2021/01/14 10:25:20;;;;;;;1.30;0.80;;;8.90;99.90;;;;;;5019225;28;20060;-61
2021/01/14 10:28:03;;;;;;;2.08;0.85;;;9.00;99.90;;;;;;5024728;28;20064;-61
2021/01/14 10:30:29;;;;;;;1.60;1.10;;;9.00;99.90;;;;;;5021636;28;20087;-61
2021/01/14 10:33:05;;;;;;;2.00;0.90;;;9.10;99.90;;;;;;5021829;28;20030;-61
2021/01/14 10:35:32;;;;;;;;;;;9.00;99.90;;;;;;5019921;28;20362;-64
2021/01/14 10:38:07;;;;;;;1.52;1.13;;;9.10;99.90;;;;;;5019931;28;20340;-67
2021/01/14 10:40:44;;;;;;;4.97;1.08;;;9.10;99.90;;;;;;5022929;28;20071;-62
2021/01/14 10:43:11;;;;;;;1.38;0.68;;;9.10;99.90;;;;;;5024110;28;20053;-61
2021/01/14 10:45:39;;;;;;;2.03;1.00;;;9.00;99.90;;;;;;5026071;28;20045;-61
2021/01/14 10:48:16;;;;;;;2.85;0.80;;;8.90;99.90;;;;;;5024740;28;20067;-62
2021/01/14 10:50:46;;;;;;;0.90;0.90;;;8.90;99.90;;;;;;5025820;28;20079;-61
2021/01/14 10:53:13;;;;;;;1.55;0.98;;;9.10;99.90;;;;;;5027607;28;20060;-62
2021/01/14 10:55:41;;;;;;;1.20;0.90;;;9.30;99.90;;;;;;5023191;28;20020;-62
2021/01/14 10:58:07;;;;;;;1.70;0.90;;;9.30;99.90;;;;;;5027043;28;20025;-62
2021/01/14 11:00:38;;;;;;;1.48;0.60;;;9.40;99.90;;;;;;5026345;28;20104;-62
2021/01/14 11:03:11;;;;;;;1.63;0.85;;;9.40;99.90;;;;;;5026710;28;20053;-61
2021/01/14 11:05:50;;;;;;;0.90;0.70;;;9.50;99.90;;;;;;5027161;28;20029;-62
2021/01/14 11:08:18;;;;;;;0.85;0.63;;;9.30;99.90;;;;;;5018337;28;20022;-62
2021/01/14 11:10:47;;;;;;;1.80;0.80;;;9.30;99.90;;;;;;5027020;28;20021;-61
2021/01/14 11:13:15;;;;;;;2.55;0.70;;;9.30;99.90;;;;;;5026853;28;20025;-62
2021/01/14 11:15:41;;;;;;;3.22;0.85;;;9.30;99.90;;;;;;5027288;28;20097;-62
2021/01/14 11:18:08;;;;;;;1.13;0.52;;;9.30;99.90;;;;;;5027434;28;20104;-62
2021/01/14 11:20:34;;;;;;;1.30;0.60;;;9.40;99.90;;;;;;5026889;28;20083;-62
2021/01/14 11:23:00;;;;;;;2.75;0.98;;;9.50;99.90;;;;;;5028003;28;20315;-62
2021/01/14 11:25:26;;;;;;;1.27;0.63;;;9.40;99.90;;;;;;5027200;28;20044;-61
2021/01/14 11:27:55;;;;;;;1.73;0.52;;;9.60;99.90;;;;;;5027446;28;20116;-62
2021/01/14 11:30:21;;;;;;;1.08;0.60;;;9.60;99.90;;;;;;5023652;28;20057;-62
2021/01/14 11:32:47;;;;;;;0.65;0.65;;;9.70;99.90;;;;;;5027560;28;20042;-62
2021/01/14 11:35:13;;;;;;;0.90;0.57;;;9.50;99.90;;;;;;5022750;28;20025;-62
2021/01/14 11:37:39;;;;;;;2.38;0.98;;;9.30;99.90;;;;;;5026303;28;20053;-62
2021/01/14 11:40:05;;;;;;;1.40;0.60;;;9.40;99.90;;;;;;5026106;28;20049;-62
2021/01/14 11:42:31;;;;;;;1.40;0.50;;;9.40;99.90;;;;;;5025988;28;20111;-62
2021/01/14 11:44:57;;;;;;;2.08;0.70;;;9.30;99.90;;;;;;5026672;28;20037;-62
2021/01/14 11:47:22;;;;;;;1.65;0.70;;;9.30;99.90;;;;;;5026867;28;20029;-62
2021/01/14 11:49:48;;;;;;;0.98;0.50;;;9.10;99.90;;;;;;5026883;28;20021;-62
2021/01/14 11:52:15;;;;;;;0.98;0.68;;;9.20;99.90;;;;;;5026821;28;20037;-62
2021/01/14 11:54:42;;;;;;;1.13;0.50;;;9.00;99.90;;;;;;5027609;28;20105;-61
2021/01/14 11:57:08;;;;;;;0.93;0.65;;;9.00;99.90;;;;;;5024518;28;20053;-61
2021/01/14 11:59:34;;;;;;;1.00;0.80;;;9.00;99.90;;;;;;5021534;28;20026;-61
2021/01/14 12:02:00;;;;;;;1.45;0.80;;;9.10;99.90;;;;;;5027778;28;20500;-61
2021/01/14 12:04:25;;;;;;;1.35;0.95;;;9.40;99.90;;;;;;5023670;28;20060;-61
2021/01/14 12:06:51;;;;;;;2.55;1.10;;;9.60;99.90;;;;;;5024300;28;20025;-61
2021/01/14 12:09:17;;;;;;;2.08;0.80;;;9.30;99.90;;;;;;5022423;28;20024;-61
2021/01/14 12:11:43;;;;;;;2.13;0.75;;;9.20;99.90;;;;;;5023596;28;20120;-61
2021/01/14 12:14:09;;;;;;;0.68;0.68;;;9.40;99.90;;;;;;5022678;28;20022;-61
2021/01/14 12:16:35;;;;;;;1.02;0.60;;;9.50;99.90;;;;;;5024962;28;20026;-61
2021/01/14 12:19:00;;;;;;;1.02;0.80;;;9.70;99.90;;;;;;5023620;28;20458;-61
2021/01/14 12:21:26;;;;;;;1.27;0.73;;;9.80;99.90;;;;;;5021764;28;20109;-61
2021/01/14 12:23:52;;;;;;;1.33;0.75;;;9.80;99.90;;;;;;5024048;28;20064;-61
2021/01/14 12:26:19;;;;;;;2.17;0.60;;;9.50;99.90;;;;;;5024415;28;20022;-61
2021/01/14 12:28:45;;;;;;;0.80;0.57;;;9.50;99.90;;;;;;5026925;28;20072;-61
2021/01/14 12:31:11;;;;;;;1.73;0.60;;;9.60;99.90;;;;;;5026454;28;20033;-61
2021/01/14 12:33:37;;;;;;;1.58;0.80;;;9.70;99.90;;;;;;5021892;28;20525;-61
2021/01/14 12:36:03;;;;;;;1.27;0.45;;;9.50;99.90;;;;;;5022869;28;20023;-61
2021/01/14 12:38:29;;;;;;;1.65;0.68;;;9.40;99.90;;;;;;5021862;28;20022;-61
2021/01/14 12:40:55;;;;;;;0.77;0.40;;;9.50;99.90;;;;;;5020458;28;20029;-61
2021/01/14 12:43:20;;;;;;;0.55;0.52;;;9.60;99.90;;;;;;5030188;28;20156;-61
2021/01/14 12:45:46;;;;;;;0.60;0.60;;;9.80;99.90;;;;;;5030217;28;20449;-61
2021/01/14 12:48:11;;;;;;;0.70;0.60;;;9.70;99.90;;;;;;5030790;28;20026;-61
2021/01/14 12:50:41;;;;;;;3.00;0.95;;;9.70;99.90;;;;;;5029801;28;20082;-61
2021/01/14 12:53:07;;;;;;;0.98;0.80;;;9.90;99.90;;;;;;5030523;28;20034;-61
2021/01/14 12:55:32;;;;;;;2.25;1.10;;;9.90;99.90;;;;;;5030060;28;20029;-62
2021/01/14 12:57:58;;;;;;;0.90;0.77;;;9.90;99.90;;;;;;5030044;28;20108;-61
2021/01/14 13:00:24;;;;;;;2.15;0.80;;;9.90;99.90;;;;;;5029968;28;20091;-61
2021/01/14 13:02:49;;;;;;;1.50;0.75;;;9.90;99.90;;;;;;5029932;28;20066;-61
2021/01/14 13:05:18;;;;;;;1.88;0.90;;;9.80;99.90;;;;;;5029643;28;20033;-61
2021/01/14 13:07:44;;;;;;;2.13;1.10;;;9.80;99.90;;;;;;5022504;28;20029;-68
2021/01/14 13:10:10;;;;;;;2.53;0.70;;;9.90;99.90;;;;;;5030390;28;20049;-62
2021/01/14 13:12:36;;;;;;;0.63;0.60;;;9.90;99.90;;;;;;5029410;28;20137;-61
2021/01/14 13:15:02;;;;;;;0.95;0.70;;;9.90;99.90;;;;;;5029617;28;20033;-61
2021/01/14 13:17:27;;;;;;;1.90;1.25;;;10.00;99.90;;;;;;5027814;28;20018;-61